Flight Track Log - Related Links

Times and Time Zones

All times are in EDT time to prevent confusion due to time zone crossing. See the AWI3778 flight status page for this flight to view local times or setup timezone preferences in your user account.

Time Position Orientation Groundspeed Altitude Reporting Facility
EDT Latitude Longitude Course Direction KTS MPH feet Rate Location/Type
Tue 04:08:55 PM 44.4036 -73.3553 195° South 275 316 8,800  Level Boston Center
Tue 04:10:07 PM 44.2969 -73.3944 195° South 298 343 10,300 1,364 Climbing Boston Center
Tue 04:11:07 PM 44.2131 -73.4597 209° Southwest 332 382 11,800 1,500 Climbing Boston Center
Tue 04:12:00 PM 43.8807 -73.3738 195° South  Level FlightAware Approximate
Tue 04:12:07 PM 44.1269 -73.5247 208° Southwest 355 409 13,300  Level Boston Center
Tue 04:13:00 PM 43.7827 -73.4100 195° South  Level FlightAware Approximate
Tue 04:13:07 PM 44.0389 -73.5925 209° Southwest 361 415 14,800  Level Boston Center
Tue 04:14:00 PM 43.6846 -73.4462 195° South  Level FlightAware Approximate
Tue 04:14:07 PM 43.9486 -73.6628 209° Southwest 361 415 16,300  Level Boston Center
Tue 04:15:07 PM 43.8603 -73.7272 208° Southwest 361 415 17,800 1,500 Climbing Boston Center
Tue 04:16:07 PM 43.7742 -73.7914 208° Southwest 361 415 19,300 1,500 Climbing Boston Center
Tue 04:17:07 PM 43.6900 -73.8586 210° Southwest 356 410 20,800 1,450 Climbing Boston Center
Tue 04:18:07 PM 43.6122 -73.9111 206° Southwest 356 410 22,200 1,450 Climbing Boston Center
Tue 04:19:07 PM 43.5322 -73.9694 208° Southwest 345 397 23,700 900 Climbing Boston Center
Tue 04:20:07 PM 43.4500 -74.0303 208° Southwest 340 391 24,000 150 Climbing Boston Center
Tue 04:21:07 PM 43.3553 -74.1047 210° Southwest 347 399 24,000  Level Boston Center
Tue 04:22:07 PM 43.2625 -74.1736 208° Southwest 364 419 24,000  Level Boston Center
Tue 04:23:07 PM 43.1656 -74.2450 208° Southwest 379 436 24,000  Level Boston Center
Tue 04:24:07 PM 43.0686 -74.3186 209° Southwest 399 459 24,000  Level Boston Center
Tue 04:25:07 PM 42.9906 -74.3758 208° Southwest 399 459 24,000  Level Boston Center
Tue 04:26:07 PM 42.8703 -74.4600 207° Southwest 399 459 24,000  Level Boston Center
Tue 04:27:07 PM 42.7731 -74.5303 208° Southwest 399 459 24,000 -250 Level Boston Center
Tue 04:28:07 PM 42.6822 -74.5978 209° Southwest 393 452 23,500 -1,000 Descending Boston Center
Tue 04:29:07 PM 42.5892 -74.6681 209° Southwest 388 447 22,000 -750 Descending Boston Center
Tue 04:30:07 PM 42.4939 -74.7350 207° Southwest 388 447 22,000  Level Boston Center
Tue 04:31:07 PM 42.3967 -74.8044 208° Southwest 388 447 22,000 -100 Level Boston Center
Tue 04:32:07 PM 42.2950 -74.8764 208° Southwest 401 461 21,800 -900 Descending Boston Center
Tue 04:33:07 PM 42.1956 -74.9483 208° Southwest 406 467 20,200 -1,031 Descending Boston Center
Tue 04:34:50 PM 42.0475 -75.0689 211° Southwest 386 444 19,000 -442 Descending New York Center
Tue 04:35:50 PM 41.9467 -75.1517 211° Southwest 393 452 19,000  Level New York Center
Tue 04:36:51 PM 41.8564 -75.2264 212° Southwest 393 452 19,000 -605 Level New York Center
Tue 04:37:49 PM 41.7642 -75.2981 210° Southwest 393 452 17,800 -1,424 Descending New York Center
Tue 04:38:49 PM 41.6867 -75.3622 212° Southwest 383 441 16,200 -1,597 Descending New York Center
Tue 04:39:53 PM 41.5964 -75.4339 211° Southwest 378 435 14,500 -1,736 Descending New York Center
Tue 04:40:50 PM 41.4953 -75.5153 211° Southwest 389 448 12,700 -1,282 Descending New York Center
Tue 04:41:50 PM 41.4050 -75.5864 211° Southwest 389 448 12,000 -347 Descending New York Center
Tue 04:42:51 PM 41.3169 -75.6547 210° Southwest 394 453 12,000  Level New York Center
Tue 04:43:51 PM 41.2050 -75.6933 195° South 388 447 12,000  Level New York Center
Tue 04:44:49 PM 41.1031 -75.6889 178° South 393 452 12,000 -407 Level New York Center
Tue 04:45:49 PM 40.9925 -75.6892 180° South 407 468 11,200 -836 Descending New York Center
Tue 04:46:51 PM 40.8858 -75.6483 164° South 401 461 10,300 -590 Descending New York Center
Tue 04:47:51 PM 40.7717 -75.5908 159° South 401 461 10,000 -150 Descending New York Center
Tue 04:48:51 PM 40.6675 -75.5397 160° South 401 461 10,000  Level New York Center
Tue 04:49:49 PM 40.5631 -75.4889 160° South 401 461 10,000  Level New York Center
Tue 04:50:49 PM 40.4894 -75.4539 160° South 391 450 10,000 -446 Level New York Center
Tue 04:51:50 PM 40.3897 -75.3981 157° South 335 386 9,100 -1,190 Descending New York Center
Tue 04:52:50 PM 40.3122 -75.3547 157° South 321 369 7,600 -1,041 Descending New York Center
Tue 04:53:51 PM 40.2397 -75.3389 171° South 295 339 7,000 -298 Descending New York Center
Tue 04:54:51 PM 40.1547 -75.3797 200° South 285 328 7,000  Level New York Center
Tue 04:55:51 PM 40.0867 -75.4131 201° Southwest 296 341 7,000 -508 Level New York Center
Tue 04:56:49 PM 39.9956 -75.3989 173° South 289 333 6,000 -508 Descending New York Center
Tue 04:57:49 PM 39.9319 -75.4272 199° South 289 333 6,000 -496 Level New York Center
Tue 04:58:50 PM 39.9106 -75.4961 248° West 206 237 5,000 -639 Descending New York Center
Tue 04:59:51 PM 39.8953 -75.5600 253° West 206 237 4,700 -496 Descending New York Center
Tue 05:00:51 PM 39.8717 -75.6286 246° West 201 231 4,000 -362 Descending New York Center
Tue 05:01:47 PM 39.8167 -75.6167 171° South 204 235 4,000  Level Philadelphia TRACON
Tue 05:02:53 PM 39.8000 -75.5500 108° East 181 208 4,000 -381 Level Philadelphia TRACON
Tue 05:03:53 PM 39.8167 -75.4833 72° East 177 204 3,200 -800 Descending Philadelphia TRACON

Login

Don't have an account? Register now (free) for customized features, flight alerts, and more!